AirNav   Duncan Aviation - Near you to keep you flying
 
 473 users online  

M18 Hope Municipal Airport
Hope, Arkansas, USA

GOING TO HOPE?


FAA INFORMATION EFFECTIVE 11 AUGUST 2022

Location

FAA Identifier: M18
Lat/Long: 33-43-11.9321N 093-39-32.0534W
33-43.198868N 093-39.534223W
33.7199811,-93.6589037
(estimated)
Elevation: 359.2 ft. / 109.5 m (surveyed)
Variation: 03E (2000)
From city: 4 miles NW of HOPE, AR
Time zone: UTC -5 (UTC -6 during Standard Time)
Zip code: 71801

Airport Operations

Airport use: Open to the public
Activation date: 07/1944
Control tower: no
ARTCC: FORT WORTH CENTER
FSS: JONESBORO FLIGHT SERVICE STATION
NOTAMs facility: JBR (NOTAM-D service available)
Attendance: MON-FRI 0800-1700
FOR SVC AFT HRS CALL 870-777-3434 (HOPE P.D.).
Wind indicator: lighted
Segmented circle: yes
Lights: PAPI RWY 16 AND 34 - CTAF. MIRL RWY 16/34 OPER DUSK-2200; AFT 2200 ACTVT - CTAF.
Beacon: white-green (lighted land airport)
Operates sunset to sunrise.

Airport Communications

CTAF/UNICOM: 122.8
  • APCH/DEP CTL SVC PRVDD BY FORT WORTH ARTCC (ZFW) ON FREQS 123.925/269.475 (TEXARKANA RCAG).

Nearby radio navigation aids

VOR radial/distance  VOR name  Freq  Var
TXKr052/24.1TEXARKANA VORTAC116.3007E

 
NDB name  Hdg/Dist  Freq  Var  ID
HOPEat field36203EHPC .... .--. -.-.

Airport Services

Fuel available: 100LL JET-A
100LL:SELF-SERVE FUEL AVBL 24 HRS (100LL & JET A)
Parking: hangars and tiedowns
Airframe service: MINOR
Powerplant service: MINOR

Runway Information

Runway 16/34

Dimensions: 5501 x 100 ft. / 1677 x 30 m
Surface: concrete, in good condition
Weight bearing capacity: 
Single wheel: 40.0
Double wheel: 55.0
Double tandem: 105.0
Runway edge lights: medium intensity
NSTD MIRL - LGTS LCTD APRXLY 35 FT FM MARKED RY EDGE.
Runway edge markings: CNTRLN AND THR MKGS FADED.
RUNWAY 16  RUNWAY 34
Latitude: 33-43.659208N33-42.773768N
Longitude: 093-39.411795W093-39.176868W
Elevation: 359.2 ft.340.4 ft.
Traffic pattern: leftleft
Runway heading: 164 magnetic, 167 true344 magnetic, 347 true
Markings: nonprecision, in poor conditionnonprecision, in poor condition
Visual slope indicator: 2-light PAPI on left (3.00 degrees glide path)2-light PAPI on left (3.00 degrees glide path)
Runway end identifier lights: yesyes
Touchdown point: yes, no lightsyes, no lights
Obstructions: 32 ft. tree, 1300 ft. from runway, 330 ft. left of centerline, 34:1 slope to clear29 ft. trees, 1200 ft. from runway, 34:1 slope to clear

Runway 4/22

Dimensions: 5301 x 100 ft. / 1616 x 30 m
Surface: concrete, in fair condition
Weight bearing capacity: 
Single wheel: 40.0
Double wheel: 55.0
Double tandem: 105.0
Runway edge markings: CNTRLN AND THR MKGS FADED.
RUNWAY 4  RUNWAY 22
Latitude: 33-42.886167N33-43.475000N
Longitude: 093-40.169667W093-39.396667W
Elevation: 330.0 ft.351.0 ft.
Traffic pattern: leftleft
Runway heading: 045 magnetic, 048 true225 magnetic, 228 true
Displaced threshold: 1190 ft.344 ft.
Markings: nonprecision, in poor conditionnonprecision, in poor condition
Touchdown point: yes, no lightsyes, no lights
Obstructions: 50 ft. trees, 250 ft. from runway, 1:1 slope to clear
APCH RATIO FROM DSPLCD THR 28:1.
none

Airport Ownership and Management from official FAA records

Ownership: Publicly-owned
Owner: CITY OF HOPE
PO BOX 667
HOPE, AR 71802
Phone 870-777-6701
Manager: DARRELL ALLEN
PO BOX 667
HOPE, AR 71802
Phone 870-777-3444

Airport Operational Statistics

Aircraft based on the field: 15
Single engine airplanes: 15
    
Aircraft operations: avg 22/day *
62% transient general aviation
31% local general aviation
6% military
* for 12-month period ending 30 May 2021

Additional Remarks

FOR CD CTC FORT WORTH ARTCC AT 817-858-7584.
DEER ON & INVOF ARPT.

Instrument Procedures

NOTE: All procedures below are presented as PDF files. If you need a reader for these files, you should download the free Adobe Reader.

NOT FOR NAVIGATION. Please procure official charts for flight.
FAA instrument procedures published for use from 11 August 2022 at 0901Z to 08 September 2022 at 0900z.

 
IAPs - Instrument Approach Procedures
RNAV (GPS) RWY 04   download (207KB)
RNAV (GPS) RWY 16   download (213KB)
RNAV (GPS) RWY 22   download (196KB)
VOR RWY 04   download (205KB)
NOTE: Special Take-Off Minimums/Departure Procedures apply   download

Other nearby airports with instrument procedures:

M77 - Howard County Airport (19 nm NW)
KTXK - Texarkana Regional Airport-Webb Field (23 nm SW)
KAGO - Ralph C Weiser Field Airport (37 nm SE)
KADF - Dexter B Florence Memorial Field Airport (37 nm NE)
KDEQ - J Lynn Helms Sevier County Airport (42 nm NW)
 
Loc | Ops | Rwys | IFR | FBO | Links
Com | Nav | Svcs | Stats | Notes
Area around M18 (Hope Municipal Airport)
 
Road maps at: MapQuest Bing Google
 
Aerial photo
WARNING: Photo may not be current or correct
Aerial photo of M18 (Hope Municipal Airport)
Photo by Danny R. Schnautz
Taken in the Spring of 2020
looking north-northwest.

Do you have a better or more recent aerial photo of Hope Municipal Airport that you would like to share? If so, please send us your photo.

 
Sectional chart

 
Airport distance calculator
Flying to Hope Municipal Airport? Find the distance to fly.

From to M18

Sunrise and sunset
Times for 11-Aug-2022
 Local
(UTC-5)
 Zulu
(UTC)
Morning civil twilight06:0811:08
Sunrise06:3511:35
Sunset20:0501:05
Evening civil twilight20:3101:31

Current date and time
Zulu (UTC)  11-Aug-2022 09:26:19
Local (UTC-5)  11-Aug-2022 04:26:19
 
METAR
KTXK 
23nm SW 
110853Z AUTO 00000KT 8SM CLR 23/22 A3004 RMK AO2 SLP166 T02330222 56005 $
KAGO 
37nm SE 
110915Z AUTO 00000KT 7SM BKN043 BKN049 OVC060 22/22 A3003 RMK A01
KDEQ 
42nm NW 
110853Z AUTO 00000KT 10SM CLR 23/21 A3003 RMK AO2 SLP162 T02280206 56002 $
KCDH 
45nm E 
110915Z AUTO 00000KT 8SM OVC006 24/24 A3003 RMK AO2
KATA 
46nm SW 
110915Z AUTO 00000KT 8SM CLR 22/22 A3003 RMK AO2 SLP067 T02210221
TAF
KTXK 
23nm SW 
110541Z 1106/1206 00000KT P6SM SKC FM110800 33002KT 4SM BR OVC250 TEMPO 1108/1112 00000KT 3SM BR BKN004 FM111200 05002KT 2SM BR OVC004 FM111500 06006KT P6SM BKN250
NOTAMs
Click for the latest NOTAMs
NOTAMs are issued by the DoD/FAA and will open in a separate window not controlled by AirNav.

 

 
 

FBO, Fuel Providers, and Aircraft Ground Support

  
 Business Name 
 
 Contact 
 
 Services / Description 
 
Fuel Prices
 
Comments
  
City of Hope 870-777-3444
no information available

If you are affiliated with City of Hope and would like to show here your services, contact info, web link, logo, and more, click here
100LL Jet A
SS $7.28 $5.40 
 Updated 30-Jul-2022
 
   write
SS=Self service
Update Fuel Prices
 

Would you like to see your business listed on this page?

 If your business provides an interesting product or service to pilots, flight crews, aircraft, or users of the Hope Municipal Airport, you should consider listing it here.  To start the listing process, click on the button below
 
Add a business
 

Other Pages about Hope Municipal Airport

Update a link
 
Copyright © AirNav, LLC. All rights reserved. Privacy Policy  Contact